createdAt,value
2023-05-16T00:01:36.522Z,11.13
2023-05-16T00:04:04.400Z,11.15
2023-05-16T00:06:32.277Z,11.16
2023-05-16T00:09:00.524Z,11.16
2023-05-16T00:11:27.789Z,11.15
2023-05-16T00:13:55.489Z,11.15
2023-05-16T00:16:22.833Z,11.15
2023-05-16T00:18:50.052Z,11.14
2023-05-16T00:21:17.356Z,11.14
2023-05-16T00:23:44.823Z,11.15
2023-05-16T00:26:11.952Z,11.16
2023-05-16T00:28:39.718Z,11.15
2023-05-16T00:31:07.256Z,11.15
2023-05-16T00:33:35.189Z,11.16
2023-05-16T00:36:02.273Z,11.17
2023-05-16T00:38:30.027Z,11.18
2023-05-16T00:40:57.278Z,11.18
2023-05-16T00:43:24.366Z,11.18
2023-05-16T00:45:51.827Z,11.17
2023-05-16T00:48:19.462Z,11.15
2023-05-16T00:50:47.593Z,11.12
2023-05-16T00:53:15.333Z,11.08
2023-05-16T00:55:43.178Z,11.06
2023-05-16T00:58:11.931Z,11.03
2023-05-16T01:00:39.094Z,11.00
2023-05-16T01:03:07.036Z,10.98
2023-05-16T01:05:34.809Z,10.96
2023-05-16T01:08:02.180Z,10.95
2023-05-16T01:10:44.060Z,10.95
2023-05-16T01:13:29.058Z,10.94
2023-05-16T01:16:04.853Z,10.95
2023-05-16T01:18:52.806Z,10.95
2023-05-16T01:21:39.221Z,10.94
2023-05-16T01:24:53.755Z,10.95
2023-05-16T01:27:24.219Z,10.96
2023-05-16T01:29:56.622Z,10.97
2023-05-16T01:32:23.915Z,10.97
2023-05-16T01:34:52.806Z,10.97
2023-05-16T01:37:38.595Z,10.96
2023-05-16T01:40:18.237Z,10.95
2023-05-16T01:42:47.695Z,10.96
2023-05-16T01:45:21.480Z,10.94
2023-05-16T01:47:57.001Z,10.93
2023-05-16T01:50:26.630Z,10.93
2023-05-16T01:53:05.964Z,10.93
2023-05-16T01:55:52.088Z,10.92
2023-05-16T01:58:26.740Z,10.92
2023-05-16T02:00:55.370Z,10.92
2023-05-16T02:03:22.850Z,10.92
2023-05-16T02:05:50.312Z,10.92
2023-05-16T02:08:17.864Z,10.92
2023-05-16T02:10:44.966Z,10.88
2023-05-16T02:13:12.338Z,10.85
2023-05-16T02:15:39.594Z,10.83
2023-05-16T02:18:07.071Z,10.81
2023-05-16T02:20:34.216Z,10.81
2023-05-16T02:23:03.758Z,10.80
2023-05-16T02:25:32.824Z,10.78
2023-05-16T02:27:59.852Z,10.76
2023-05-16T02:30:27.136Z,10.79
2023-05-16T02:32:54.586Z,10.83
2023-05-16T02:35:22.570Z,10.88
2023-05-16T02:37:49.729Z,10.92
2023-05-16T02:40:17.621Z,10.98
2023-05-16T02:42:44.641Z,11.04
2023-05-16T02:45:12.665Z,11.11
2023-05-16T02:47:39.932Z,11.17
2023-05-16T02:50:07.449Z,11.24
2023-05-16T02:52:35.529Z,11.29
2023-05-16T02:57:33.072Z,11.35
2023-05-16T03:00:00.392Z,11.41
2023-05-16T03:02:27.602Z,11.46
2023-05-16T03:04:55.678Z,11.55
2023-05-16T03:07:22.837Z,11.67
2023-05-16T03:09:50.169Z,11.81
2023-05-16T03:12:18.951Z,11.96
2023-05-16T03:14:47.170Z,12.12
2023-05-16T03:17:15.109Z,12.28
2023-05-16T03:19:42.136Z,12.44
2023-05-16T03:22:09.508Z,12.62
2023-05-16T03:24:36.828Z,12.81
2023-05-16T03:27:05.153Z,12.97
2023-05-16T03:29:33.120Z,13.13
2023-05-16T03:32:00.464Z,13.24
2023-05-16T03:34:28.539Z,13.25
2023-05-16T03:36:55.831Z,13.20
2023-05-16T03:39:23.458Z,13.19
2023-05-16T03:41:52.172Z,13.21
2023-05-16T03:44:19.208Z,13.22
2023-05-16T03:46:46.802Z,13.24
2023-05-16T03:49:13.791Z,13.25
2023-05-16T03:51:41.362Z,13.26
2023-05-16T03:54:08.482Z,13.28
2023-05-16T03:56:35.509Z,13.30
2023-05-16T03:59:02.873Z,13.34
2023-05-16T04:01:30.434Z,13.36
2023-05-16T04:03:57.698Z,13.45
2023-05-16T04:06:25.068Z,13.73
2023-05-16T04:08:52.651Z,14.11
2023-05-16T04:11:19.859Z,14.42
2023-05-16T04:13:46.949Z,14.64
2023-05-16T04:16:14.554Z,14.77
2023-05-16T04:18:42.216Z,14.81
2023-05-16T04:21:11.062Z,14.82
2023-05-16T04:23:38.605Z,14.88
2023-05-16T04:26:05.725Z,14.95
2023-05-16T04:28:33.421Z,15.05
2023-05-16T04:31:00.704Z,15.13
2023-05-16T04:33:27.791Z,15.22
2023-05-16T04:35:54.965Z,15.31
2023-05-16T04:38:22.751Z,15.40
2023-05-16T04:40:51.138Z,15.48
2023-05-16T04:43:19.689Z,15.56
2023-05-16T04:45:47.328Z,15.68
2023-05-16T04:48:15.633Z,15.97
2023-05-16T04:50:43.114Z,16.46
2023-05-16T04:53:10.532Z,17.02
2023-05-16T04:55:37.775Z,17.56
2023-05-16T04:58:05.592Z,18.03
2023-05-16T05:00:33.264Z,18.44
2023-05-16T05:03:00.812Z,18.86
2023-05-16T05:05:28.232Z,19.12
2023-05-16T05:07:56.138Z,19.04
2023-05-16T05:10:23.420Z,18.91
2023-05-16T05:12:50.947Z,18.97
2023-05-16T05:15:18.090Z,19.19
2023-05-16T05:17:45.888Z,19.44
2023-05-16T05:20:13.403Z,19.67
2023-05-16T05:22:40.896Z,19.96
2023-05-16T05:25:08.908Z,20.34
2023-05-16T05:27:36.211Z,20.71
2023-05-16T05:30:04.268Z,20.97
2023-05-16T05:32:31.643Z,21.24
2023-05-16T05:34:59.144Z,21.53
2023-05-16T05:37:27.205Z,21.76
2023-05-16T05:39:54.264Z,21.98
2023-05-16T05:42:21.461Z,22.22
2023-05-16T05:44:48.558Z,22.43
2023-05-16T05:47:15.955Z,22.61
2023-05-16T05:49:43.192Z,22.82
2023-05-16T05:52:10.898Z,23.04
2023-05-16T05:54:38.093Z,23.24
2023-05-16T05:57:05.708Z,23.35
2023-05-16T05:59:33.012Z,23.46
2023-05-16T06:02:00.205Z,23.61
2023-05-16T06:04:27.355Z,23.69
2023-05-16T06:06:54.529Z,23.77
2023-05-16T06:09:22.389Z,23.81
2023-05-16T06:11:50.856Z,23.86
2023-05-16T06:14:17.932Z,23.96
2023-05-16T06:16:45.288Z,24.16
2023-05-16T06:19:16.354Z,24.37
2023-05-16T06:21:45.088Z,24.60
2023-05-16T06:24:12.932Z,24.84
2023-05-16T06:26:40.272Z,25.06
2023-05-16T06:29:07.715Z,25.28
2023-05-16T06:31:35.177Z,25.50
2023-05-16T06:34:02.309Z,25.68
2023-05-16T06:36:29.458Z,25.77
2023-05-16T06:38:57.086Z,25.82
2023-05-16T06:41:24.241Z,25.78
2023-05-16T06:43:52.031Z,25.65
2023-05-16T06:46:19.409Z,25.45
2023-05-16T06:48:46.614Z,25.32
2023-05-16T06:51:14.298Z,25.40
2023-05-16T06:53:41.595Z,25.35
2023-05-16T06:56:09.010Z,25.10
2023-05-16T06:58:36.375Z,25.04
2023-05-16T07:01:03.687Z,25.13
2023-05-16T07:03:32.232Z,25.22
2023-05-16T07:06:00.044Z,25.23
2023-05-16T07:08:28.201Z,25.37
2023-05-16T07:10:55.262Z,25.55
2023-05-16T07:13:22.513Z,25.53
2023-05-16T07:15:49.818Z,25.31
2023-05-16T07:18:17.388Z,25.05
2023-05-16T07:20:44.748Z,24.84
2023-05-16T07:23:12.047Z,24.69
2023-05-16T07:25:39.483Z,24.75
2023-05-16T07:28:06.526Z,24.92
2023-05-16T07:30:34.915Z,25.04
2023-05-16T07:33:02.370Z,25.08
2023-05-16T07:35:30.150Z,25.08
2023-05-16T07:37:57.366Z,25.01
2023-05-16T07:40:28.992Z,25.07
2023-05-16T07:42:56.298Z,25.18
2023-05-16T07:45:23.432Z,25.24
2023-05-16T07:47:51.081Z,25.27
2023-05-16T07:50:18.222Z,25.37
2023-05-16T07:52:45.869Z,25.49
2023-05-16T07:55:13.822Z,25.60
2023-05-16T07:57:41.029Z,25.79
2023-05-16T08:00:09.667Z,26.03
2023-05-16T08:02:39.872Z,26.30
2023-05-16T08:05:08.071Z,26.55
2023-05-16T08:07:35.786Z,26.69
2023-05-16T08:10:03.808Z,26.75
2023-05-16T08:12:31.346Z,26.89
2023-05-16T08:14:58.575Z,27.07
2023-05-16T08:17:26.217Z,27.21
2023-05-16T08:19:53.512Z,27.35
2023-05-16T08:22:21.295Z,27.27
2023-05-16T08:24:48.503Z,27.08
2023-05-16T08:27:15.615Z,26.89
2023-05-16T08:29:42.872Z,26.80
2023-05-16T08:32:11.471Z,26.72
2023-05-16T08:34:38.636Z,26.71
2023-05-16T08:37:06.733Z,26.67
2023-05-16T08:39:34.393Z,26.57
2023-05-16T08:42:02.117Z,26.53
2023-05-16T08:44:29.355Z,26.61
2023-05-16T08:46:57.796Z,26.61
2023-05-16T08:49:28.032Z,26.62
2023-05-16T08:51:58.574Z,26.65
2023-05-16T08:54:28.157Z,26.66
2023-05-16T08:56:58.536Z,26.71
2023-05-16T08:59:25.891Z,26.66
2023-05-16T09:01:53.284Z,26.54
2023-05-16T09:04:21.312Z,26.58
2023-05-16T09:06:48.660Z,26.67
2023-05-16T09:09:15.767Z,26.72
2023-05-16T09:11:42.941Z,26.81
2023-05-16T09:14:10.064Z,26.93
2023-05-16T09:16:38.482Z,27.02
2023-05-16T09:19:05.850Z,27.01
2023-05-16T09:21:35.953Z,27.06
2023-05-16T09:24:08.471Z,27.21
2023-05-16T09:26:36.679Z,27.39
2023-05-16T09:29:14.195Z,27.56
2023-05-16T09:31:41.416Z,27.73
2023-05-16T09:34:11.328Z,27.86
2023-05-16T09:36:38.950Z,28.02
2023-05-16T09:39:08.015Z,28.18
2023-05-16T09:41:36.490Z,28.26
2023-05-16T09:44:06.898Z,28.35
2023-05-16T09:46:35.340Z,28.45
2023-05-16T09:49:03.117Z,28.41
2023-05-16T09:51:30.853Z,28.26
2023-05-16T09:53:59.868Z,28.16
2023-05-16T09:56:26.949Z,28.15
2023-05-16T09:58:54.326Z,28.11
2023-05-16T10:01:21.526Z,27.99
2023-05-16T10:03:51.587Z,27.81
2023-05-16T10:06:19.533Z,27.59
2023-05-16T10:08:48.116Z,27.41
2023-05-16T10:11:16.992Z,27.27
2023-05-16T10:13:50.550Z,27.26
2023-05-16T10:16:21.906Z,27.29
2023-05-16T10:18:50.240Z,27.33
2023-05-16T10:21:19.892Z,27.39
2023-05-16T10:23:49.269Z,27.39
2023-05-16T10:26:17.620Z,27.39
2023-05-16T10:28:46.106Z,27.38
2023-05-16T10:31:14.986Z,27.30
2023-05-16T10:33:42.608Z,27.25
2023-05-16T10:36:17.051Z,27.22
2023-05-16T10:38:46.727Z,27.08
2023-05-16T10:41:14.368Z,27.03
2023-05-16T10:43:46.654Z,26.99
2023-05-16T10:46:14.925Z,27.01
2023-05-16T10:48:42.518Z,27.04
2023-05-16T10:51:26.278Z,27.01
2023-05-16T10:54:36.315Z,27.08
2023-05-16T10:57:14.127Z,27.17
2023-05-16T10:59:44.093Z,27.21
2023-05-16T11:02:35.152Z,27.25
2023-05-16T11:05:03.192Z,27.22
2023-05-16T11:07:36.797Z,27.19
2023-05-16T11:10:04.884Z,27.18
2023-05-16T11:12:38.522Z,27.17
2023-05-16T11:15:24.967Z,27.14
2023-05-16T11:18:11.236Z,27.18
2023-05-16T11:20:40.362Z,27.26
2023-05-16T11:23:22.607Z,27.33
2023-05-16T11:25:58.598Z,27.39
2023-05-16T11:28:27.242Z,27.40
2023-05-16T11:30:58.137Z,27.36
2023-05-16T11:33:25.981Z,27.36
2023-05-16T11:36:15.727Z,27.36
2023-05-16T11:38:44.256Z,27.36
2023-05-16T11:41:12.596Z,27.36
2023-05-16T11:43:45.419Z,27.38
2023-05-16T11:46:18.760Z,27.27
2023-05-16T11:48:47.646Z,26.97
2023-05-16T11:51:19.217Z,26.93
2023-05-16T11:53:50.078Z,26.98
2023-05-16T11:56:17.756Z,26.95
2023-05-16T11:58:45.851Z,26.77
2023-05-16T12:01:13.117Z,26.59
2023-05-16T12:03:41.176Z,26.53
2023-05-16T12:06:09.036Z,26.56
2023-05-16T12:08:36.224Z,26.52
2023-05-16T12:11:03.408Z,26.44
2023-05-16T12:13:30.771Z,26.45
2023-05-16T12:15:58.851Z,26.44
2023-05-16T12:18:26.547Z,26.36
2023-05-16T12:20:54.075Z,26.20
2023-05-16T12:23:21.230Z,26.08
2023-05-16T12:25:49.624Z,25.98
2023-05-16T12:28:16.830Z,25.79
2023-05-16T12:30:48.174Z,25.67
2023-05-16T12:33:16.933Z,25.54
2023-05-16T12:35:45.932Z,25.48
2023-05-16T12:38:15.795Z,25.44
2023-05-16T12:40:44.113Z,25.43
2023-05-16T12:43:15.678Z,25.47
2023-05-16T12:45:49.845Z,25.56
2023-05-16T12:48:17.142Z,25.58
2023-05-16T12:50:46.812Z,25.61
2023-05-16T12:53:14.710Z,25.64
2023-05-16T12:55:42.738Z,25.65
2023-05-16T12:58:11.680Z,25.59
2023-05-16T13:00:39.633Z,25.47
2023-05-16T13:03:07.931Z,25.34
2023-05-16T13:05:36.527Z,25.29
2023-05-16T13:08:04.449Z,25.29
2023-05-16T13:10:31.552Z,25.31
2023-05-16T13:13:00.401Z,25.34
2023-05-16T13:15:28.238Z,25.35
2023-05-16T13:17:55.939Z,25.28
2023-05-16T13:20:23.079Z,25.17
2023-05-16T13:22:50.186Z,25.07
2023-05-16T13:25:17.340Z,25.03
2023-05-16T13:27:44.997Z,25.04
2023-05-16T13:30:12.438Z,25.03
2023-05-16T13:32:39.594Z,25.07
2023-05-16T13:35:07.246Z,25.09
2023-05-16T13:37:34.379Z,25.05
2023-05-16T13:40:01.692Z,24.95
2023-05-16T13:42:28.903Z,24.89
2023-05-16T13:44:56.319Z,24.85
2023-05-16T13:47:23.407Z,24.80
2023-05-16T13:49:50.983Z,24.75
2023-05-16T13:52:18.143Z,24.72
2023-05-16T13:54:45.198Z,24.74
2023-05-16T13:57:12.516Z,24.73
2023-05-16T14:02:09.620Z,24.62
2023-05-16T14:04:36.737Z,24.56
2023-05-16T14:07:04.006Z,24.47
2023-05-16T14:09:31.917Z,24.38
2023-05-16T14:11:58.980Z,24.29
2023-05-16T14:14:26.506Z,24.23
2023-05-16T14:16:53.770Z,24.18
2023-05-16T14:19:21.094Z,24.09
2023-05-16T14:21:48.447Z,24.01
2023-05-16T14:24:15.544Z,23.93
2023-05-16T14:26:42.649Z,23.87
2023-05-16T14:29:09.746Z,23.86
2023-05-16T14:31:37.016Z,23.86
2023-05-16T14:34:04.436Z,23.86
2023-05-16T14:36:32.108Z,23.87
2023-05-16T14:38:59.412Z,23.88
2023-05-16T14:41:28.377Z,23.86
2023-05-16T14:43:56.500Z,23.84
2023-05-16T14:46:23.651Z,23.81
2023-05-16T14:48:51.283Z,23.77
2023-05-16T14:51:18.450Z,23.71
2023-05-16T14:53:47.107Z,23.66
2023-05-16T14:56:16.101Z,23.61
2023-05-16T14:58:43.264Z,23.57
2023-05-16T15:01:10.494Z,23.54
2023-05-16T15:03:53.808Z,23.49
2023-05-16T15:06:22.316Z,23.44
2023-05-16T15:08:49.454Z,23.42
2023-05-16T15:11:16.590Z,23.39
2023-05-16T15:13:43.698Z,23.36
2023-05-16T15:16:10.999Z,23.33
2023-05-16T15:18:38.355Z,23.29
2023-05-16T15:21:05.555Z,23.26
2023-05-16T15:23:33.251Z,23.21
2023-05-16T15:26:00.364Z,23.17
2023-05-16T15:28:27.485Z,23.11
2023-05-16T15:30:54.627Z,23.05
2023-05-16T15:33:21.744Z,22.98
2023-05-16T15:35:48.819Z,22.91
2023-05-16T15:38:15.968Z,22.85
2023-05-16T15:40:43.122Z,22.80
2023-05-16T15:43:10.392Z,22.76
2023-05-16T15:45:40.086Z,22.71
2023-05-16T15:48:07.915Z,22.64
2023-05-16T15:50:35.093Z,22.58
2023-05-16T15:53:02.449Z,22.53
2023-05-16T15:55:30.085Z,22.47
2023-05-16T15:57:58.854Z,22.41
2023-05-16T16:00:26.301Z,22.34
2023-05-16T16:02:53.673Z,22.29
2023-05-16T16:05:21.507Z,22.23
2023-05-16T16:07:48.613Z,22.17
2023-05-16T16:10:15.917Z,22.10
2023-05-16T16:12:43.084Z,22.02
2023-05-16T16:15:10.972Z,21.95
2023-05-16T16:17:38.229Z,21.89
2023-05-16T16:20:06.101Z,21.81
2023-05-16T16:22:33.272Z,21.73
2023-05-16T16:25:00.900Z,21.67
2023-05-16T16:27:28.090Z,21.61
2023-05-16T16:29:55.183Z,21.54
2023-05-16T16:32:22.307Z,21.47
2023-05-16T16:34:49.537Z,21.42
2023-05-16T16:37:16.741Z,21.35
2023-05-16T16:39:43.890Z,21.31
2023-05-16T16:42:11.695Z,21.28
2023-05-16T16:44:38.956Z,21.24
2023-05-16T16:47:06.251Z,21.21
2023-05-16T16:49:33.369Z,21.18
2023-05-16T16:52:00.483Z,21.12
2023-05-16T16:54:28.336Z,21.08
2023-05-16T16:56:56.628Z,21.00
2023-05-16T16:59:23.785Z,20.90
2023-05-16T17:01:53.013Z,20.84
2023-05-16T17:04:20.301Z,20.79
2023-05-16T17:06:48.837Z,20.71
2023-05-16T17:09:18.131Z,20.62
2023-05-16T17:11:47.013Z,20.49
2023-05-16T17:14:15.117Z,20.36
2023-05-16T17:16:42.572Z,20.23
2023-05-16T17:19:10.368Z,20.10
2023-05-16T17:21:40.737Z,20.00
2023-05-16T17:24:08.073Z,19.91
2023-05-16T17:26:35.830Z,19.83
2023-05-16T17:29:05.212Z,19.77
2023-05-16T17:31:32.787Z,19.69
2023-05-16T17:33:59.888Z,19.62
2023-05-16T17:36:27.196Z,19.57
2023-05-16T17:38:54.334Z,19.51
2023-05-16T17:41:22.354Z,19.46
2023-05-16T17:43:49.590Z,19.41
2023-05-16T17:46:16.706Z,19.36
2023-05-16T17:48:44.407Z,19.31
2023-05-16T17:51:11.623Z,19.26
2023-05-16T17:53:38.839Z,19.20
2023-05-16T17:56:06.128Z,19.15
2023-05-16T17:58:33.320Z,19.11
2023-05-16T18:01:00.559Z,19.05
2023-05-16T18:03:27.736Z,19.00
2023-05-16T18:05:54.960Z,18.93
2023-05-16T18:08:22.101Z,18.83
2023-05-16T18:10:52.030Z,18.75
2023-05-16T18:13:22.297Z,18.67
2023-05-16T18:15:50.647Z,18.60
2023-05-16T18:18:18.399Z,18.55
2023-05-16T18:20:46.348Z,18.50
2023-05-16T18:23:13.426Z,18.45
2023-05-16T18:25:40.619Z,18.41
2023-05-16T18:28:07.937Z,18.35
2023-05-16T18:30:37.709Z,18.29
2023-05-16T18:33:06.725Z,18.23
2023-05-16T18:35:33.918Z,18.18
2023-05-16T18:43:06.791Z,18.02
2023-05-16T18:45:34.744Z,17.95
2023-05-16T18:48:01.967Z,17.88
2023-05-16T18:50:29.168Z,17.81
2023-05-16T18:52:57.738Z,17.72
2023-05-16T18:55:25.145Z,17.63
2023-05-16T18:57:52.546Z,17.54
2023-05-16T19:00:22.931Z,17.48
2023-05-16T19:02:50.642Z,17.42
2023-05-16T19:05:19.792Z,17.38
2023-05-16T19:07:47.195Z,17.33
2023-05-16T19:10:14.392Z,17.29
2023-05-16T19:12:41.548Z,17.27
2023-05-16T19:15:09.821Z,17.25
2023-05-16T19:17:37.128Z,17.25
2023-05-16T19:20:04.932Z,17.19
2023-05-16T19:22:32.045Z,17.13
2023-05-16T19:24:59.139Z,17.08
2023-05-16T19:27:26.257Z,17.02
2023-05-16T19:29:53.424Z,16.92
2023-05-16T19:32:20.586Z,16.81
2023-05-16T19:34:47.759Z,16.68
2023-05-16T19:37:14.870Z,16.58
2023-05-16T19:39:41.992Z,16.53
2023-05-16T19:42:09.121Z,16.47
2023-05-16T19:44:36.251Z,16.42
2023-05-16T19:47:03.433Z,16.41
2023-05-16T19:49:32.040Z,16.40
2023-05-16T19:51:59.238Z,16.37
2023-05-16T19:54:26.442Z,16.35
2023-05-16T19:56:53.899Z,16.32
2023-05-16T19:59:22.588Z,16.27
2023-05-16T20:01:49.688Z,16.22
2023-05-16T20:04:16.911Z,16.16
2023-05-16T20:06:44.102Z,16.10
2023-05-16T20:09:11.547Z,16.03
2023-05-16T20:11:38.758Z,15.95
2023-05-16T20:14:06.060Z,15.85
2023-05-16T20:16:33.224Z,15.75
2023-05-16T20:19:02.512Z,15.66
2023-05-16T20:21:29.768Z,15.61
2023-05-16T20:23:56.878Z,15.57
2023-05-16T20:26:24.058Z,15.53
2023-05-16T20:28:51.269Z,15.49
2023-05-16T20:31:18.551Z,15.43
2023-05-16T20:33:47.000Z,15.37
2023-05-16T20:36:14.196Z,15.30
2023-05-16T20:38:41.370Z,15.20
2023-05-16T20:41:08.558Z,15.10
2023-05-16T20:43:35.730Z,14.99
2023-05-16T20:46:02.999Z,14.91
2023-05-16T20:48:30.401Z,14.83
2023-05-16T20:50:57.585Z,14.77
2023-05-16T20:53:25.269Z,14.72
2023-05-16T20:55:52.366Z,14.67
2023-05-16T20:58:19.572Z,14.63
2023-05-16T21:00:46.693Z,14.59
2023-05-16T21:03:15.024Z,14.57
2023-05-16T21:05:42.235Z,14.52
2023-05-16T21:08:09.368Z,14.45
2023-05-16T21:10:36.472Z,14.41
2023-05-16T21:13:03.964Z,14.37
2023-05-16T21:15:31.281Z,14.31
2023-05-16T21:17:58.435Z,14.26
2023-05-16T21:20:25.573Z,14.22
2023-05-16T21:22:52.690Z,14.20
2023-05-16T21:25:19.841Z,14.20
2023-05-16T21:27:46.988Z,14.16
2023-05-16T21:30:17.059Z,14.12
2023-05-16T21:32:44.263Z,14.06
2023-05-16T21:35:11.538Z,13.98
2023-05-16T21:37:38.695Z,13.90
2023-05-16T21:40:09.428Z,13.82
2023-05-16T21:42:36.810Z,13.74
2023-05-16T21:45:04.326Z,13.66
2023-05-16T21:47:31.706Z,13.58
2023-05-16T21:49:58.815Z,13.51
2023-05-16T21:52:26.065Z,13.46
2023-05-16T21:54:53.358Z,13.41
2023-05-16T21:57:20.622Z,13.38
2023-05-16T21:59:50.804Z,13.36
2023-05-16T22:02:23.063Z,13.32
2023-05-16T22:04:51.589Z,13.31
2023-05-16T22:07:19.810Z,13.29
2023-05-16T22:09:51.082Z,13.27
2023-05-16T22:12:18.164Z,13.24
2023-05-16T22:14:45.482Z,13.20
2023-05-16T22:17:12.655Z,13.16
2023-05-16T22:19:39.834Z,13.11
2023-05-16T22:22:07.077Z,13.05
2023-05-16T22:24:34.248Z,12.96
2023-05-16T22:27:01.401Z,12.88
2023-05-16T22:29:28.646Z,12.80
2023-05-16T22:31:55.810Z,12.70
2023-05-16T22:34:22.982Z,12.61
2023-05-16T22:36:50.125Z,12.53
2023-05-16T22:39:17.276Z,12.49
2023-05-16T22:41:44.414Z,12.48
2023-05-16T22:44:11.531Z,12.49
2023-05-16T22:46:38.625Z,12.48
2023-05-16T22:49:05.838Z,12.47
2023-05-16T22:51:32.965Z,12.48
2023-05-16T22:54:00.076Z,12.48
2023-05-16T22:56:27.383Z,12.47
2023-05-16T22:58:54.530Z,12.44
2023-05-16T23:01:22.264Z,12.40
2023-05-16T23:03:49.500Z,12.35
2023-05-16T23:06:16.989Z,12.31
2023-05-16T23:08:44.071Z,12.25
2023-05-16T23:11:11.912Z,12.18
2023-05-16T23:13:39.137Z,12.12
2023-05-16T23:16:06.447Z,12.05
2023-05-16T23:18:33.699Z,11.98
2023-05-16T23:21:01.016Z,11.92
2023-05-16T23:23:28.086Z,11.87
2023-05-16T23:25:55.215Z,11.83
2023-05-16T23:28:22.794Z,11.82
2023-05-16T23:30:49.993Z,11.78
2023-05-16T23:33:17.525Z,11.77
2023-05-16T23:35:44.755Z,11.76
2023-05-16T23:38:11.872Z,11.73
2023-05-16T23:40:39.126Z,11.72
2023-05-16T23:43:06.756Z,11.72
2023-05-16T23:45:33.852Z,11.72
2023-05-16T23:48:01.037Z,11.70
2023-05-16T23:50:28.228Z,11.68
2023-05-16T23:52:55.446Z,11.65
2023-05-16T23:55:22.692Z,11.60
2023-05-16T23:57:49.928Z,11.57
